x

Columbia River Bar - 20nm West Of Columbia River Mouth (46029) Wave Buoy

5:50am - Mon 16th Jan 2017 All times are PST. -8 hours from GMT.

  • Sig Wave height 6.9ft
  • Swell Direction
  • Peak Period 15s
  • Average Period 9s
  • Wind
    18mph, 20mph gusts
  • Sea Temp 49°f
  • 空気 Temp 44°f
  • Sea Pressure 1021.3mb
  • Columbia River Bar - 20nm West Of Columbia River Mouth
  • Columbia River Bar - 20nm West Of Columbia River Mouth

More Historic Weather Station data

Upgrade to MSW Pro to gain access to the past 30 days of data for over 8000 Wavebouys and Weather Stations around the globe.

Join Pro

Comparision Forecast

View Surf forecast
   
Mon 01/16 5:50am 7ft 15s 9s 18 20 mph 1021.3mb 49f 44f
4:50am 7.5ft 15s 10s 13 16 mph 1022.3mb 49f 45f
3:50am 8ft 15s 10s 13 16 mph 1022.7mb 49f 45f
2:50am 8.5ft 15s 10s 11 16 mph 1023.1mb 49f 44f
1:50am 8ft 16s 10s 9 11 mph 1023.1mb 49f 45f
12:50am 8ft 16s 10s 9 11 mph 1023.7mb 49f 45f
Sun 01/15 11:50pm 7.5ft 14s 10s 13 16 mph 1024mb 49f 43f
10:50pm 8ft 15s 11s 11 13 mph 1024.1mb 49f 45f
9:50pm 8ft 16s 11s 9 11 mph 1024.4mb 49f 44f
8:50pm 7.5ft 16s 11s 7 9 mph 1024.8mb 49f 47f
7:50pm 7.5ft 16s 10s 13 18 mph 1023.6mb 49f 45f
6:50pm 6ft 17s 9s 16 20 mph 1023.7mb 49f 44f
5:50pm 6.5ft 16s 10s 7 9 mph 1025.2mb 49f 45f
4:50pm 7ft 17s 10s 4 7 mph 1025.4mb 49f 44f
3:50pm 7ft 17s 10s 2 4 mph 1025.2mb 49f 44f
2:50pm 5.5ft 17s 9s 2 4 mph 1024.7mb 49f 45f
1:50pm 5.5ft 17s 8s 4 7 mph 1024.2mb 49f 44f
12:50pm 6ft 17s 8s 9 11 mph 1024.1mb 49f 43f
11:50am 6ft 17s 8s 11 13 mph 1024.3mb 49f 42f
10:50am 6ft 17s 8s 13 16 mph 1025.2mb 49f 42f
9:50am 5.5ft 17s 8s 11 13 mph 1025.4mb 49f 42f
8:50am 6ft 17s 8s 13 16 mph 1024.9mb 49f 42f
7:50am 6ft 17s 7s 13 16 mph 1024.4mb 49f 42f
6:50am 5.5ft 10s 7s 13 16 mph 1024.3mb 49f 42f
5:50am 5ft 9s 7s 13 16 mph 1024.4mb 49f 42f
4:50am 6ft 19s 8s 13 16 mph 1024.5mb 49f 43f
3:50am 6ft 10s 7s 16 18 mph 1024.4mb 49f 43f
2:50am 6ft 9s 7s 16 18 mph 1024mb 49f 44f
1:50am 5ft 10s 7s 11 13 mph 1024.5mb 49f 44f
12:50am 5ft 11s 7s 11 13 mph 1024.3mb 49f 44f
Sat 01/14 11:50pm 5ft 10s 8s 11 13 mph 1024.2mb 49f 44f
10:50pm 5.5ft 10s 8s 11 13 mph 1023.7mb 49f 44f
9:50pm 5ft 19s 8s 11 13 mph 1023.7mb 49f 44f
8:50pm 5ft 10s 7s 11 13 mph 1023.6mb 49f 44f
7:50pm 4.5ft 11s 7s 11 13 mph 1023.4mb 49f 45f
6:50pm 5ft 12s 7s 13 16 mph 1023.2mb 49f 45f
5:50pm 4.5ft 12s 6s 13 16 mph 1023.4mb 49f 44f
4:50pm 4.5ft 14s 6s 13 16 mph 1023.7mb 49f 45f
3:50pm 3.5ft 21s 6s 13 16 mph 1023.8mb 49f 44f
2:50pm 3.5ft 13s 6s 9 11 mph 1023.9mb 49f 44f
1:50pm 3.5ft 12s 6s 7 9 mph 1024.4mb 49f 43f
12:50pm 3.5ft 13s 6s 7 11 mph 1025mb 49f 43f
11:50am 3.5ft 17s 5s 7 9 mph 1025.9mb 49f 42f
10:50am 4ft 14s 5s 11 13 mph 1026.4mb 49f 42f
9:50am 3.5ft 14s 5s 16 20 mph 1026.3mb 49f 41f
8:50am 4ft 14s 5s 13 16 mph 1026.7mb 49f 42f
7:50am 4ft 14s 5s 13 16 mph 1026.9mb 48f 41f
6:50am 4ft 16s 5s 18 20 mph 1026.9mb 48f 40f
5:50am 4ft 14s 5s 13 18 mph 1027.1mb 49f 40f
4:50am 3.5ft 14s 5s 13 16 mph 1027.8mb 48f 40f
3:50am 3.5ft 15s 6s 13 16 mph 1027.7mb 48f 41f
2:50am 3.5ft 14s 6s 13 16 mph 1028mb 48f 41f
1:50am 3.5ft 15s 6s 16 18 mph 1027.4mb 48f 41f
12:50am 3.5ft 9s 6s 13 16 mph 1027.8mb 49f 41f
Fri 01/13 11:50pm 3.5ft 10s 6s 9 11 mph 1028.5mb 49f 41f
10:50pm 3.5ft 11s 5s 9 11 mph 1028.7mb 49f 41f
9:50pm 3.5ft 15s 6s 16 18 mph 1028.3mb 49f 41f
8:50pm 3.5ft 10s 6s 13 16 mph 1029.2mb 49f 40f
7:50pm 4ft 11s 6s 9 13 mph 1029.3mb 49f 41f
6:50pm 4.5ft 11s 6s 18 22 mph 1028.6mb 49f 41f
5:50pm 3.5ft 11s 6s 13 16 mph 1028.5mb 49f 41f
4:50pm 3.5ft 10s 6s 11 13 mph 1028.3mb 49f 41f
3:50pm 4ft 10s 6s 13 16 mph 1028.3mb 49f 41f
2:50pm 4ft 11s 6s 11 16 mph 1028.7mb 49f 40f
1:50pm 4ft 10s 6s 13 18 mph 1028.1mb 49f 40f
12:50pm 4ft 10s 6s 9 13 mph 1028.6mb 49f 39f
11:50am 4ft 11s 6s 16 20 mph 1029mb 49f 39f
10:50am 4ft 11s 5s 13 18 mph 1029.5mb 49f 38f
9:50am 4.5ft 11s 6s 13 20 mph 1028.5mb 49f 38f
8:50am 4ft 11s 6s 16 18 mph 1028.3mb 49f 39f
7:50am 3.5ft 11s 7s 11 13 mph 1027.9mb 49f 39f
6:50am 3.5ft 11s 8s 7 11 mph 1028.1mb 49f 39f
5:50am 4ft 11s 8s 9 13 mph 1027.9mb 49f 39f
4:50am 3.5ft 11s 7s 9 11 mph 1028mb 49f 40f
3:50am 4ft 11s 7s 7 9 mph 1028.1mb 49f 40f
2:50am 4ft 12s 8s 9 13 mph 1027.4mb 49f 39f
1:50am 4.5ft 11s 8s 9 11 mph 1026.9mb 49f 40f
12:50am 4.5ft 11s 7s 9 13 mph 1026.5mb 49f 40f
Thu 01/12 11:50pm 4.5ft 11s 7s 11 16 mph 1026.8mb 49f 40f
10:50pm 4.5ft 11s 7s 13 18 mph 1026.4mb 49f 40f
9:50pm 5ft 11s 7s 11 13 mph 1026.3mb 49f 40f
8:50pm 4.5ft 11s 7s 13 18 mph 1026.2mb 49f 42f
7:50pm 5ft 11s 8s 11 18 mph 1025.7mb 49f 42f
6:50pm 6ft 11s 7s 11 13 mph 1025.1mb 49f 42f
5:50pm 6ft 12s 8s 11 16 mph 1025mb 49f 42f
4:50pm 6ft 12s 8s 13 16 mph 1024.3mb 49f 42f
3:50pm 6ft 12s 8s 11 13 mph 1023.9mb 50f 41f